Gennep, Netherlands
Current Conditions -  °F | °C
As of 6:20 PM on Thursday 30 Oct 2014 (Local Time) from EDLV Reporting Station
Clear Clear  
Wind Chill: 59°   Ceiling: Unl
Heat Index: 59°   Visibility: 4mi
Dew Point: 59°   Wind: 5mph
Humidity: 100%   Direction: 130°SE
Pressure: 30.18"   Gusts: NA
Location:  51.7°N, 5.97°E
Report Text: EDLV 301720Z 13004KT 6000 NSC 15/15 Q1022
Loading
Personal Weather Stations






























Interactive Weather Map
Tropical Storm Tracking
New forecast layout! Learn more

10-Day Weather Forecast

Advertisements
Track Severe Weather on mobile